Time;durP1;ratioP1;P1;durP2;ratioP2;P2;SDS_P1;SDS_P2;PMS_P1;PMS_P2;Temp;Humidity;BMP_temperature;BMP_pressure;BME280_temperature;BME280_humidity;BME280_pressure;Samples;Min_cycle;Max_cycle;Signal;HPM_P1;HPM_P2
2022/08/14 00:01:35;;;;;;;15.95;11.93;;;;;;;19.39;66.19;99958.88;6230947;22;20023;-65
2022/08/14 00:04:00;;;;;;;16.05;11.88;;;;;;;19.39;66.43;99958.88;6230595;22;20095;-72
2022/08/14 00:06:25;;;;;;;23.13;13.43;;;;;;;19.38;66.48;99959.88;6230688;22;20054;-72
2022/08/14 00:08:50;;;;;;;21.77;12.02;;;;;;;19.39;66.57;99958.00;6230711;22;20019;-67
2022/08/14 00:11:15;;;;;;;18.42;12.18;;;;;;;19.39;66.75;99953.47;6230887;22;20360;-70
2022/08/14 00:13:40;;;;;;;16.00;11.88;;;;;;;19.39;66.67;99952.59;6230658;22;20021;-69
2022/08/14 00:16:05;;;;;;;19.70;12.25;;;;;;;19.39;66.10;99960.72;6230820;22;20015;-72
2022/08/14 00:18:29;;;;;;;18.67;12.00;;;;;;;19.37;66.12;99957.31;6204273;22;20035;-69
2022/08/14 00:20:56;;;;;;;17.98;11.63;;;;;;;19.35;65.72;99960.19;6205438;22;20043;-76
2022/08/14 00:23:20;;;;;;;15.75;11.93;;;;;;;19.32;66.27;99955.06;6178959;22;20070;-65
2022/08/14 00:25:52;;;;;;;18.75;11.82;;;;;;;19.32;66.34;99957.78;6230362;22;20016;-70
2022/08/14 00:28:20;;;;;;;18.50;11.75;;;;;;;19.30;66.31;99953.56;6202595;22;20065;-73
2022/08/14 00:30:46;;;;;;;18.35;12.43;;;;;;;19.29;66.25;99957.28;6178495;22;20411;-73
2022/08/14 00:33:11;;;;;;;16.38;12.50;;;;;;;19.27;66.47;99949.31;6202923;22;20012;-68
2022/08/14 00:35:36;;;;;;;20.33;12.25;;;;;;;19.23;66.71;99954.19;6229818;22;20019;-68
2022/08/14 00:38:01;;;;;;;16.83;12.20;;;;;;;19.20;67.15;99950.94;6229938;22;20015;-68
2022/08/14 00:40:26;;;;;;;13.15;11.10;;;;;;;19.16;66.83;99955.81;6229380;22;20037;-65
2022/08/14 00:42:51;;;;;;;17.02;11.15;;;;;;;19.13;67.14;99948.03;6202950;22;20086;-68
2022/08/14 00:45:17;;;;;;;18.67;12.43;;;;;;;19.11;67.49;99944.63;6229648;22;20065;-66
2022/08/14 00:47:45;;;;;;;20.02;12.77;;;;;;;19.09;67.41;99943.91;6202771;22;20020;-65
2022/08/14 00:50:13;;;;;;;16.63;12.27;;;;;;;19.08;68.13;99957.59;6229872;22;20025;-67
2022/08/14 00:52:38;;;;;;;17.35;12.00;;;;;;;19.03;67.82;99952.66;6202840;22;20359;-65
2022/08/14 00:55:06;;;;;;;17.98;11.82;;;;;;;19.01;67.81;99951.13;6230004;22;20328;-66
2022/08/14 00:57:32;;;;;;;15.98;11.57;;;;;;;18.97;68.10;99944.31;6202785;22;20027;-65
2022/08/14 00:59:59;;;;;;;24.08;12.95;;;;;;;18.93;68.08;99945.66;6229868;22;20019;-66
2022/08/14 01:02:27;;;;;;;19.50;11.52;;;;;;;18.91;68.32;99951.22;6229561;22;20031;-64
2022/08/14 01:04:56;;;;;;;18.05;12.23;;;;;;;18.87;68.20;99955.22;6202036;22;20022;-66
2022/08/14 01:07:22;;;;;;;16.58;11.73;;;;;;;18.83;68.31;99949.28;6229764;22;20489;-69
2022/08/14 01:09:51;;;;;;;18.40;11.68;;;;;;;18.82;68.08;99955.69;6229766;22;20090;-68
2022/08/14 01:12:16;;;;;;;15.07;11.30;;;;;;;18.78;68.32;99958.84;6202634;22;20015;-68
2022/08/14 01:14:41;;;;;;;21.40;12.60;;;;;;;18.76;67.61;99952.75;6229879;22;20035;-69
2022/08/14 01:17:06;;;;;;;18.33;12.70;;;;;;;18.74;68.51;99952.03;6229646;22;20023;-69
2022/08/14 01:22:15;;;;;;;13.63;11.13;;;;;;;18.73;68.26;99955.78;6229913;22;20050;-68
2022/08/14 01:24:41;;;;;;;17.17;12.00;;;;;;;18.71;68.57;99955.94;6203126;22;20015;-68
2022/08/14 01:27:06;;;;;;;16.30;11.57;;;;;;;18.69;68.53;99957.06;6178103;22;20011;-69
2022/08/14 01:29:36;;;;;;;15.93;11.63;;;;;;;18.67;68.55;99948.28;6180539;22;20117;-69
2022/08/14 01:32:03;;;;;;;13.68;11.43;;;;;;;18.65;68.65;99952.97;6232876;22;20019;-70
2022/08/14 01:34:28;;;;;;;15.75;11.60;;;;;;;18.62;68.97;99947.91;6230987;22;20016;-70
2022/08/14 01:36:52;;;;;;;15.52;11.75;;;;;;;18.60;68.77;99953.44;6231194;22;20018;-71
2022/08/14 01:39:17;;;;;;;20.70;13.00;;;;;;;18.59;69.18;99951.75;6230234;22;20050;-71
2022/08/14 01:41:51;;;;;;;20.35;12.45;;;;;;;18.60;68.82;99955.31;6230190;22;20403;-70
2022/08/14 01:44:16;;;;;;;20.63;13.03;;;;;;;18.56;69.00;99952.00;6230563;22;20450;-71
2022/08/14 01:46:43;;;;;;;18.83;11.57;;;;;;;18.58;68.93;99960.00;6202803;22;20380;-72
2022/08/14 01:49:11;;;;;;;18.48;12.32;;;;;;;18.60;68.97;99958.00;6230608;22;20480;-73
2022/08/14 01:51:38;;;;;;;22.52;13.45;;;;;;;18.59;68.12;99964.41;6230847;22;20022;-74
2022/08/14 01:54:10;;;;;;;19.17;12.93;;;;;;;18.63;68.62;99960.38;6230380;22;20024;-74
2022/08/14 01:56:39;;;;;;;17.92;12.85;;;;;;;18.63;68.77;99963.06;6230373;22;20023;-74
2022/08/14 01:59:20;;;;;;;15.60;12.15;;;;;;;18.65;68.91;99967.31;6230382;22;20020;-75
2022/08/14 02:01:50;;;;;;;19.75;12.90;;;;;;;18.62;68.73;99969.50;6229818;22;20023;-72
2022/08/14 02:04:15;;;;;;;16.17;11.85;;;;;;;18.57;68.78;99964.53;6230902;22;20072;-74
2022/08/14 02:06:40;;;;;;;21.02;13.60;;;;;;;18.57;69.04;99963.66;6202327;22;20015;-72
2022/08/14 02:09:07;;;;;;;18.05;12.88;;;;;;;18.56;69.16;99972.75;6228778;22;20019;-72
2022/08/14 02:11:34;;;;;;;18.08;12.45;;;;;;;18.55;69.04;99976.47;6202006;22;20473;-72
2022/08/14 02:14:03;;;;;;;19.77;13.98;;;;;;;18.58;69.14;99970.81;6228308;22;20027;-72
2022/08/14 02:16:32;;;;;;;14.82;12.43;;;;;;;18.54;69.04;99970.22;6176187;22;20011;-72
2022/08/14 02:19:00;;;;;;;21.45;13.18;;;;;;;18.54;69.17;99974.75;6201442;22;20077;-72
2022/08/14 02:21:27;;;;;;;18.05;12.95;;;;;;;18.54;69.24;99974.75;6229597;22;20024;-73
2022/08/14 02:23:54;;;;;;;18.13;12.77;;;;;;;18.55;69.14;99981.88;6202013;22;20018;-73
2022/08/14 02:26:40;;;;;;;19.05;13.60;;;;;;;18.54;69.02;99985.56;6228811;22;20016;-72
2022/08/14 02:29:11;;;;;;;20.40;14.02;;;;;;;18.54;69.18;99981.00;6176310;22;20026;-74
2022/08/14 02:31:39;;;;;;;17.55;13.50;;;;;;;18.55;68.91;99974.63;6176066;22;20833;-73
2022/08/14 02:34:09;;;;;;;19.70;13.77;;;;;;;18.57;68.88;99979.88;6228266;22;20026;-73
2022/08/14 02:36:34;;;;;;;18.30;14.25;;;;;;;18.56;69.03;99972.75;6229410;22;20125;-74
2022/08/14 02:38:58;;;;;;;22.42;14.63;;;;;;;18.58;68.85;99978.91;6229277;22;20058;-74
2022/08/14 02:41:24;;;;;;;22.20;14.70;;;;;;;18.60;68.66;99972.34;6229780;22;20471;-74
2022/08/14 02:43:48;;;;;;;26.63;15.25;;;;;;;18.60;68.57;99976.91;6229901;22;20019;-75
2022/08/14 02:46:15;;;;;;;26.60;14.55;;;;;;;18.63;67.71;99979.28;6231014;22;20092;-72
2022/08/14 02:48:41;;;;;;;22.27;15.07;;;;;;;18.68;68.13;99979.69;6232417;22;20339;-72
2022/08/14 02:51:12;;;;;;;23.42;16.08;;;;;;;18.78;67.42;99988.56;6202777;22;20102;-73
2022/08/14 02:53:39;;;;;;;24.48;16.48;;;;;;;18.88;67.22;99986.63;6229751;22;20355;-74
2022/08/14 02:56:05;;;;;;;20.35;14.98;;;;;;;18.98;67.18;99991.94;6177618;22;20026;-73
2022/08/14 02:58:33;;;;;;;30.98;16.48;;;;;;;19.09;66.56;99980.91;6202381;22;20020;-67
2022/08/14 03:00:58;;;;;;;23.33;16.13;;;;;;;19.16;65.85;99982.84;6200410;22;20031;-64
2022/08/14 03:03:23;;;;;;;25.15;17.02;;;;;;;19.25;65.33;99985.59;6228813;22;20124;-67
2022/08/14 03:05:50;;;;;;;31.85;18.90;;;;;;;19.32;64.60;99992.06;6151800;22;20016;-67
2022/08/14 03:08:15;;;;;;;28.15;17.77;;;;;;;19.39;63.90;99993.16;6176922;22;20370;-64
2022/08/14 03:10:40;;;;;;;25.95;18.05;;;;;;;19.49;64.13;99991.25;6176626;22;20402;-65
2022/08/14 03:13:05;;;;;;;27.83;18.48;;;;;;;19.61;64.14;99986.41;6228950;22;20382;-64
2022/08/14 03:15:37;;;;;;;28.88;17.67;;;;;;;19.78;64.03;99999.03;6226930;22;20351;-66
2022/08/14 03:18:03;;;;;;;25.83;17.08;;;;;;;19.90;63.58;100004.00;6201565;22;20015;-66
2022/08/14 03:20:29;;;;;;;28.13;17.85;;;;;;;20.05;62.99;100000.72;6228158;22;20397;-64
2022/08/14 03:22:59;;;;;;;26.92;18.35;;;;;;;20.20;62.41;100001.81;6201512;22;20015;-64
2022/08/14 03:25:24;;;;;;;27.60;18.75;;;;;;;20.37;61.93;100000.03;6229027;22;20328;-64
2022/08/14 03:27:49;;;;;;;28.85;16.60;;;;;;;20.54;61.34;100002.63;6228103;22;20540;-64
2022/08/14 03:30:13;;;;;;;29.10;18.92;;;;;;;20.71;60.73;99994.56;6201486;22;20023;-63
2022/08/14 03:32:38;;;;;;;22.60;16.80;;;;;;;20.87;60.91;99994.59;6228185;22;20061;-64
2022/08/14 03:35:04;;;;;;;26.92;18.02;;;;;;;21.02;60.58;99995.59;6201198;22;20011;-65
2022/08/14 03:37:29;;;;;;;27.38;17.80;;;;;;;21.15;59.91;100001.38;6228261;22;20019;-64
2022/08/14 03:39:54;;;;;;;33.15;18.02;;;;;;;21.29;58.07;99997.19;6228040;22;20023;-64
2022/08/14 03:42:21;;;;;;;30.58;18.70;;;;;;;21.43;57.98;99988.38;6201397;22;20015;-63
2022/08/14 03:44:47;;;;;;;31.00;18.08;;;;;;;21.56;57.64;99993.25;6201041;22;20022;-64
2022/08/14 03:47:12;;;;;;;24.95;17.10;;;;;;;21.69;56.71;99989.00;6228306;22;20019;-64
2022/08/14 03:49:37;;;;;;;26.30;16.35;;;;;;;21.81;57.17;99994.06;6228110;22;20016;-64
2022/08/14 03:52:06;;;;;;;21.58;16.45;;;;;;;21.93;57.05;99985.38;6201322;22;20575;-64
2022/08/14 03:54:34;;;;;;;28.33;18.10;;;;;;;22.05;56.72;99994.03;6227953;22;20465;-64
2022/08/14 03:56:59;;;;;;;30.80;17.95;;;;;;;22.17;55.26;99989.94;6175889;22;20024;-63
2022/08/14 03:59:24;;;;;;;30.17;17.50;;;;;;;22.27;55.60;99987.00;6175920;22;20089;-65
2022/08/14 04:01:51;;;;;;;24.85;16.95;;;;;;;22.37;54.29;99985.75;6228351;22;20023;-64
2022/08/14 04:04:16;;;;;;;27.30;17.90;;;;;;;22.51;54.41;99986.88;6228530;22;20397;-64
2022/08/14 04:06:41;;;;;;;26.92;17.25;;;;;;;22.60;53.53;99990.41;6150931;22;20016;-64
2022/08/14 04:09:06;;;;;;;29.70;18.02;;;;;;;22.70;53.24;99994.56;6228274;22;20089;-64
2022/08/14 04:11:31;;;;;;;25.08;16.35;;;;;;;22.87;53.42;99991.81;6228308;22;20019;-67
2022/08/14 04:13:56;;;;;;;29.83;17.13;;;;;;;22.98;52.99;99991.38;6228290;22;20015;-65
2022/08/14 04:16:22;;;;;;;27.88;17.50;;;;;;;23.05;52.75;99992.34;6229325;22;20022;-66
2022/08/14 04:18:50;;;;;;;26.30;16.65;;;;;;;23.20;53.44;99995.13;6230224;22;20027;-66
2022/08/14 04:21:16;;;;;;;27.63;16.67;;;;;;;23.38;51.97;100001.09;6230012;22;20025;-65
2022/08/14 04:23:42;;;;;;;25.77;16.17;;;;;;;23.59;51.94;100000.44;6229805;22;20026;-66
2022/08/14 04:26:09;;;;;;;26.05;16.05;;;;;;;23.82;51.41;99998.47;6177174;22;20372;-68
2022/08/14 04:28:35;;;;;;;25.58;16.65;;;;;;;24.10;51.00;99999.53;6202935;22;20042;-65
2022/08/14 04:31:00;;;;;;;21.67;14.73;;;;;;;24.35;49.38;99994.69;6202820;22;20483;-65
2022/08/14 04:33:24;;;;;;;24.65;15.10;;;;;;;24.69;48.92;100002.22;6202603;22;20524;-65
2022/08/14 04:35:51;;;;;;;31.58;15.38;;;;;;;25.01;48.35;100006.41;6229778;22;20077;-65
2022/08/14 04:43:43;;;;;;;27.20;14.63;;;;;;;26.02;45.71;99996.97;6230070;22;20297;-67
2022/08/14 04:46:15;;;;;;;21.15;14.88;;;;;;;26.25;45.09;100003.00;6202238;22;20018;-65
2022/08/14 04:48:40;;;;;;;21.77;13.80;;;;;;;26.53;44.29;100002.09;6229980;22;20038;-65
2022/08/14 04:51:11;;;;;;;24.90;15.15;;;;;;;26.74;43.55;100002.84;6229574;22;20024;-66
2022/08/14 04:53:41;;;;;;;22.80;14.32;;;;;;;26.87;42.70;100002.00;6202830;22;20389;-66
2022/08/14 04:56:06;;;;;;;20.02;13.73;;;;;;;27.03;42.82;100006.31;6230578;22;20085;-67
2022/08/14 04:58:32;;;;;;;21.98;14.05;;;;;;;27.18;43.27;100008.88;6202806;22;20067;-65
2022/08/14 05:00:58;;;;;;;19.02;13.63;;;;;;;27.25;42.33;99994.13;6203528;22;20015;-66
2022/08/14 05:03:28;;;;;;;21.55;14.63;;;;;;;27.42;42.62;100006.38;6229582;22;20020;-68
2022/08/14 05:05:55;;;;;;;24.65;14.13;;;;;;;27.55;41.22;100004.66;6230383;22;20043;-67
2022/08/14 05:08:21;;;;;;;23.50;13.57;;;;;;;27.60;40.87;100000.28;6177824;22;20579;-67
2022/08/14 05:10:50;;;;;;;21.42;13.43;;;;;;;27.78;41.25;99997.72;6178066;22;20027;-66
2022/08/14 05:13:15;;;;;;;22.92;13.68;;;;;;;28.10;40.98;99992.44;6202682;22;20031;-66
2022/08/14 05:15:41;;;;;;;18.52;12.43;;;;;;;28.47;39.93;99999.06;6177607;22;20011;-66
2022/08/14 05:18:12;;;;;;;19.58;11.57;;;;;;;28.88;39.35;99995.97;6177579;22;20036;-64
2022/08/14 05:20:44;;;;;;;13.98;11.65;;;;;;;29.41;38.73;99998.38;6230061;22;20012;-64
2022/08/14 05:23:09;;;;;;;19.00;12.13;;;;;;;29.76;37.92;99999.56;6229926;22;20022;-66
2022/08/14 05:25:34;;;;;;;18.60;12.90;;;;;;;30.01;37.34;99998.72;6201885;22;20026;-66
2022/08/14 05:28:20;;;;;;;19.58;11.65;;;;;;;30.27;37.40;99995.66;6202449;22;20446;-67
2022/08/14 05:30:46;;;;;;;17.67;12.05;;;;;;;30.42;36.60;99987.03;6202365;22;20086;-66
2022/08/14 05:33:12;;;;;;;16.52;11.60;;;;;;;30.56;35.73;99989.44;6229507;22;20322;-67
2022/08/14 05:35:38;;;;;;;13.90;10.77;;;;;;;30.63;34.51;99984.69;6202371;22;20100;-66
2022/08/14 05:38:07;;;;;;;13.73;10.15;;;;;;;30.53;34.82;99989.88;6229699;22;20049;-67
2022/08/14 05:40:33;;;;;;;12.77;9.45;;;;;;;30.77;34.44;99990.00;6177480;22;20128;-67
2022/08/14 05:42:58;;;;;;;13.45;9.18;;;;;;;31.15;33.66;99987.81;6229994;22;20118;-68
2022/08/14 05:45:23;;;;;;;11.80;8.73;;;;;;;31.32;32.46;99993.47;6228789;22;20120;-66
2022/08/14 05:47:47;;;;;;;9.98;8.48;;;;;;;31.41;32.34;99997.53;6202108;22;20090;-65
2022/08/14 05:50:13;;;;;;;13.75;9.35;;;;;;;31.57;32.67;99987.75;6201618;22;20015;-66
2022/08/14 05:52:38;;;;;;;12.35;8.80;;;;;;;31.87;32.43;99985.75;6202242;22;20090;-66
2022/08/14 05:55:06;;;;;;;11.40;8.13;;;;;;;32.16;31.86;99983.09;6229352;22;20046;-66
2022/08/14 05:57:30;;;;;;;13.88;9.15;;;;;;;32.49;31.25;99983.31;6176098;22;20355;-66
2022/08/14 05:59:55;;;;;;;11.10;7.65;;;;;;;32.73;30.23;99982.16;6201710;22;20331;-65
2022/08/14 06:02:20;;;;;;;9.52;7.85;;;;;;;33.00;29.92;99985.16;6228665;22;20020;-66
2022/08/14 06:04:47;;;;;;;11.38;7.68;;;;;;;32.94;29.18;99985.34;6151203;22;20069;-65
2022/08/14 06:07:11;;;;;;;8.88;7.88;;;;;;;32.76;28.93;99978.91;6176746;22;20018;-64
2022/08/14 06:09:36;;;;;;;10.60;7.07;;;;;;;32.77;28.61;99982.50;6202012;22;20012;-65
2022/08/14 06:12:01;;;;;;;10.57;7.80;;;;;;;32.99;28.16;99977.13;6202599;22;20015;-67
2022/08/14 06:14:26;;;;;;;8.35;6.97;;;;;;;33.42;28.70;99980.16;6229706;22;20526;-66
2022/08/14 06:16:50;;;;;;;9.13;7.75;;;;;;;33.98;27.67;99985.75;6176854;22;20015;-65
2022/08/14 06:19:17;;;;;;;8.68;6.78;;;;;;;34.39;26.43;99981.66;6176818;22;20019;-66
2022/08/14 06:21:41;;;;;;;10.70;8.02;;;;;;;34.31;26.09;99979.34;6202105;22;20086;-68
2022/08/14 06:24:07;;;;;;;9.00;6.97;;;;;;;34.48;25.78;99985.66;6177072;22;20042;-68
2022/08/14 06:26:32;;;;;;;10.20;7.70;;;;;;;34.70;25.71;99985.63;6151057;22;20022;-67
2022/08/14 06:28:56;;;;;;;8.80;6.97;;;;;;;34.98;25.04;99981.84;6228715;22;20019;-67
2022/08/14 06:31:21;;;;;;;7.57;6.78;;;;;;;35.27;24.71;99983.25;6228658;22;20336;-66
2022/08/14 06:33:46;;;;;;;7.72;6.65;;;;;;;35.94;23.84;99982.69;6151372;22;20454;-65
2022/08/14 06:36:11;;;;;;;8.65;6.88;;;;;;;36.64;23.59;99981.44;6202376;22;20012;-65
2022/08/14 06:38:35;;;;;;;8.13;7.03;;;;;;;37.37;23.02;99979.38;6176103;22;20466;-66
2022/08/14 06:41:00;;;;;;;10.18;7.47;;;;;;;37.90;22.29;99983.59;6229072;22;20015;-66
2022/08/14 06:43:25;;;;;;;9.75;7.20;;;;;;;38.44;22.13;99989.31;6228626;22;20020;-66
2022/08/14 06:45:50;;;;;;;12.05;8.57;;;;;;;39.00;21.13;99980.72;6228670;22;20020;-67
2022/08/14 06:48:22;;;;;;;10.68;7.20;;;;;;;39.19;20.71;99992.00;6228962;22;20031;-66
2022/08/14 06:50:48;;;;;;;10.65;7.50;;;;;;;39.14;20.43;99986.47;6201840;22;20015;-66
2022/08/14 06:53:16;;;;;;;14.60;10.00;;;;;;;39.19;19.88;99990.06;6228681;22;20016;-66
2022/08/14 06:55:42;;;;;;;8.90;7.45;;;;;;;39.41;19.78;99986.00;6176211;22;20026;-66
2022/08/14 06:58:11;;;;;;;9.57;7.15;;;;;;;39.17;19.87;99980.28;6228720;22;20026;-66
2022/08/14 07:00:36;;;;;;;10.13;6.80;;;;;;;39.13;19.70;99984.81;6229323;22;20078;-67
2022/08/14 07:05:47;;;;;;;8.52;6.88;;;;;;;39.08;19.57;99993.19;6176236;22;20043;-66
2022/08/14 07:08:17;;;;;;;6.65;6.00;;;;;;;39.15;19.07;99983.41;6202512;22;20050;-66
2022/08/14 07:10:43;;;;;;;7.40;6.70;;;;;;;39.43;19.07;99979.03;6201714;22;20026;-69
2022/08/14 07:13:10;;;;;;;9.13;6.63;;;;;;;39.51;18.95;99981.19;6177600;22;20012;-68
2022/08/14 07:15:35;;;;;;;8.48;6.70;;;;;;;39.54;18.80;99969.44;6201820;22;20096;-66
2022/08/14 07:18:02;;;;;;;9.20;6.72;;;;;;;39.26;18.57;99972.16;6202092;22;20019;-66
2022/08/14 07:20:27;;;;;;;7.15;6.10;;;;;;;38.95;18.79;99971.50;6228703;22;20069;-67
2022/08/14 07:22:55;;;;;;;8.02;6.55;;;;;;;39.47;18.88;99982.06;6229476;22;20075;-66
2022/08/14 07:25:20;;;;;;;7.07;5.90;;;;;;;40.23;17.66;99978.53;6202331;22;20012;-64
2022/08/14 07:27:45;;;;;;;9.00;6.97;;;;;;;40.43;17.37;99980.28;6228640;22;20027;-66
2022/08/14 07:30:10;;;;;;;10.20;7.10;;;;;;;40.80;17.39;99976.75;6151876;22;20011;-66
2022/08/14 07:32:35;;;;;;;8.65;7.78;;;;;;;41.45;16.96;99974.09;6176814;22;20366;-65
2022/08/14 07:35:00;;;;;;;8.07;7.28;;;;;;;42.70;16.50;99986.03;6228427;22;20405;-66
2022/08/14 07:37:25;;;;;;;8.32;7.47;;;;;;;44.19;15.29;99994.16;6229433;22;20098;-67
2022/08/14 07:39:50;;;;;;;9.60;8.27;;;;;;;45.14;14.74;99983.22;6201900;22;20354;-66
2022/08/14 07:42:15;;;;;;;8.80;7.90;;;;;;;45.76;14.12;99985.66;6229071;22;20038;-66
2022/08/14 07:44:39;;;;;;;10.18;8.15;;;;;;;46.05;13.73;99994.22;6228353;22;20016;-66
2022/08/14 07:47:05;;;;;;;12.68;8.15;;;;;;;46.39;13.10;99992.44;6228916;22;20451;-68
2022/08/14 07:49:33;;;;;;;8.68;7.97;;;;;;;46.26;13.49;100000.78;6202491;22;20016;-67
2022/08/14 07:51:58;;;;;;;9.73;8.88;;;;;;;46.36;13.46;99982.66;6203564;22;20012;-68
2022/08/14 07:54:23;;;;;;;11.77;9.48;;;;;;;46.24;13.42;99990.97;6204156;22;20419;-68
2022/08/14 07:56:48;;;;;;;11.68;8.80;;;;;;;46.68;13.07;99984.00;6231122;22;20338;-68
2022/08/14 07:59:15;;;;;;;8.98;8.25;;;;;;;47.37;12.85;99985.50;6203783;22;20019;-68
2022/08/14 08:01:41;;;;;;;9.90;8.95;;;;;;;47.20;12.43;99987.25;6230900;22;20038;-68
2022/08/14 08:04:07;;;;;;;10.23;9.45;;;;;;;46.40;12.85;99996.88;6203545;22;20027;-67
2022/08/14 08:06:32;;;;;;;9.57;8.57;;;;;;;46.32;12.84;99981.66;6230348;22;20019;-65
2022/08/14 08:08:58;;;;;;;9.77;8.73;;;;;;;46.63;12.79;99998.28;6230765;22;20094;-66
2022/08/14 08:11:31;;;;;;;9.70;8.82;;;;;;;47.28;12.11;99992.03;6230789;22;20377;-65
2022/08/14 08:13:58;;;;;;;9.57;8.60;;;;;;;46.91;12.28;99990.97;6178134;22;20024;-65
2022/08/14 08:16:23;;;;;;;11.60;10.60;;;;;;;47.20;12.46;99995.72;6203326;22;20012;-64
2022/08/14 08:18:49;;;;;;;11.05;10.18;;;;;;;47.75;11.73;99993.78;6203699;22;20090;-66
2022/08/14 08:21:14;;;;;;;12.15;11.00;;;;;;;48.57;11.55;99994.59;6230335;22;20039;-67
2022/08/14 08:23:39;;;;;;;11.77;10.68;;;;;;;49.34;10.78;99989.75;6203547;22;20022;-65
2022/08/14 08:26:04;;;;;;;12.82;11.65;;;;;;;49.19;10.76;99987.69;6230683;22;20511;-66
2022/08/14 08:28:30;;;;;;;13.07;12.05;;;;;;;48.88;10.62;99988.34;6230634;22;20066;-66
2022/08/14 08:31:00;;;;;;;13.38;12.30;;;;;;;49.18;11.33;99995.38;6178074;22;20435;-64
2022/08/14 08:33:31;;;;;;;12.68;11.57;;;;;;;49.00;10.69;100000.44;6203368;22;20489;-64
2022/08/14 08:36:04;;;;;;;18.30;15.30;;;;;;;49.30;11.10;99989.66;6230337;22;20110;-63
2022/08/14 08:38:29;;;;;;;13.15;12.13;;;;;;;49.54;10.59;99988.75;6203310;22;20026;-67
2022/08/14 08:40:57;;;;;;;15.40;13.90;;;;;;;49.97;9.97;99985.09;6203440;22;20015;-68
2022/08/14 08:43:26;;;;;;;14.48;13.02;;;;;;;49.94;10.32;99979.31;6177959;22;20026;-69
2022/08/14 08:45:59;;;;;;;13.32;12.00;;;;;;;50.03;10.45;99982.78;6177571;22;20019;-67
2022/08/14 08:48:28;;;;;;;13.43;12.27;;;;;;;49.05;10.90;99973.91;6177899;22;20026;-67
2022/08/14 08:50:55;;;;;;;11.23;10.25;;;;;;;46.62;11.98;99972.03;6230281;22;20019;-67
2022/08/14 08:53:20;;;;;;;11.25;9.93;;;;;;;43.87;13.48;99958.78;6230784;22;20026;-67
2022/08/14 08:55:45;;;;;;;10.45;9.32;;;;;;;41.71;15.46;99952.94;6229902;22;20024;-67
2022/08/14 08:58:20;;;;;;;11.95;8.40;;;;;;;39.65;17.42;100000.03;6229849;22;20019;-67
2022/08/14 09:00:48;;;;;;;8.95;7.68;;;;;;;38.02;19.41;99936.78;6230030;22;20026;-67
2022/08/14 09:03:19;;;;;;;8.63;7.78;;;;;;;38.40;19.66;99949.19;6202493;22;20016;-67
2022/08/14 09:05:53;;;;;;;11.40;7.43;;;;;;;40.47;17.86;99947.81;6229977;22;20022;-67
2022/08/14 09:08:27;;;;;;;8.90;8.10;;;;;;;41.41;17.59;99945.06;6230013;22;20038;-68
2022/08/14 09:10:54;;;;;;;10.23;8.82;;;;;;;41.48;16.86;99945.50;6178164;22;20011;-69
2022/08/14 09:13:21;;;;;;;11.65;8.85;;;;;;;42.69;15.54;99951.53;6230671;22;20043;-67
2022/08/14 09:15:48;;;;;;;9.50;7.80;;;;;;;43.94;14.43;99955.50;6231191;22;20014;-67
2022/08/14 09:18:16;;;;;;;8.98;8.18;;;;;;;43.27;14.74;99959.19;6204203;22;20020;-69
2022/08/14 09:20:44;;;;;;;11.90;8.43;;;;;;;42.08;15.91;99949.19;6230893;22;20039;-70
2022/08/14 09:23:10;;;;;;;9.73;7.70;;;;;;;40.70;17.06;99946.09;6203707;22;20015;-72
2022/08/14 09:25:36;;;;;;;11.27;8.93;;;;;;;38.67;18.41;99936.84;6230838;22;20020;-67
2022/08/14 09:28:03;;;;;;;9.40;7.90;;;;;;;36.79;19.79;99933.44;6230989;22;20020;-67
2022/08/14 09:30:31;;;;;;;8.38;7.63;;;;;;;35.62;21.63;99932.81;6204238;22;20022;-66
2022/08/14 09:33:02;;;;;;;9.57;7.70;;;;;;;35.25;21.49;99938.31;6178265;22;20046;-68
2022/08/14 09:35:54;;;;;;;8.93;8.10;;;;;;;35.47;22.06;99933.50;6177611;22;20011;-69
2022/08/14 09:38:58;;;;;;;11.45;7.60;;;;;;;37.64;20.69;99929.06;6230135;22;20016;-67
2022/08/14 09:41:51;;;;;;;11.00;7.70;;;;;;;41.74;16.98;99940.31;6030005;23;20113;-68
2022/08/14 09:44:44;;;;;;;8.70;7.78;;;;;;;43.43;14.80;99935.22;6078199;23;20033;-70
2022/08/14 09:47:09;;;;;;;10.15;9.13;;;;;;;42.47;15.60;99942.22;6078489;23;20018;-69
2022/08/14 09:49:35;;;;;;;10.30;9.30;;;;;;;41.61;16.43;99944.72;6054410;23;20024;-69
2022/08/14 09:52:12;;;;;;;9.48;8.50;;;;;;;41.32;17.03;99936.50;6079082;23;20021;-67
2022/08/14 09:54:45;;;;;;;13.20;8.85;;;;;;;39.78;18.12;99930.41;6054738;23;20077;-68
2022/08/14 09:57:22;;;;;;;9.15;8.25;;;;;;;38.31;18.60;99927.78;6078996;23;20017;-69
2022/08/14 09:59:48;;;;;;;12.98;9.27;;;;;;;37.35;19.98;99923.25;6079371;23;20049;-68
2022/08/14 10:02:31;;;;;;;10.40;9.00;;;;;;;38.47;18.79;99932.19;6078261;23;20060;-67
2022/08/14 10:05:01;;;;;;;11.60;8.63;;;;;;;38.73;19.05;99925.34;6077328;23;20022;-68
2022/08/14 10:07:33;;;;;;;;;;;;;;;40.09;18.59;99924.50;6087721;23;20092;-68
2022/08/14 10:09:59;;;;;;;8.75;7.93;;;;;;;41.02;16.54;99926.63;6053123;23;19913;-67
2022/08/14 10:12:24;;;;;;;12.27;8.55;;;;;;;41.69;16.28;99922.44;6169817;22;20020;-69
2022/08/14 10:14:50;;;;;;;9.90;8.93;;;;;;;42.17;15.70;99926.88;6229038;22;20019;-68
2022/08/14 10:17:25;;;;;;;11.95;8.70;;;;;;;42.21;15.61;99930.72;6202659;22;20019;-69
2022/08/14 10:19:50;;;;;;;10.13;9.23;;;;;;;41.14;16.54;99929.00;6176819;22;20051;-66
2022/08/14 10:22:27;;;;;;;10.18;9.15;;;;;;;40.46;16.58;99927.41;6201422;22;20069;-65
2022/08/14 10:24:53;;;;;;;12.23;8.70;;;;;;;39.55;17.36;99929.25;6151063;22;20016;-66
2022/08/14 10:27:23;;;;;;;11.32;8.07;;;;;;;38.83;18.32;99927.25;6201121;22;20065;-67
2022/08/14 10:29:51;;;;;;;12.65;8.65;;;;;;;37.75;19.20;99930.72;6228042;22;20020;-68
2022/08/14 10:32:16;;;;;;;9.85;8.30;;;;;;;36.55;20.78;99919.19;6201169;22;20016;-67
2022/08/14 10:34:41;;;;;;;16.55;9.35;;;;;;;34.62;22.65;99911.31;6150459;22;20025;-67
2022/08/14 10:37:12;;;;;;;10.52;8.75;;;;;;;33.99;23.24;99921.88;6201179;22;20015;-67
2022/08/14 10:39:39;;;;;;;10.15;8.65;;;;;;;32.76;25.26;99909.03;6175796;22;20015;-67
2022/08/14 10:42:14;;;;;;;9.55;8.25;;;;;;;32.04;25.86;99903.97;6228474;22;20094;-68
2022/08/14 10:44:44;;;;;;;9.45;8.52;;;;;;;31.63;27.48;99901.34;6200790;22;20065;-67
2022/08/14 10:47:09;;;;;;;14.32;9.30;;;;;;;31.75;27.31;99904.97;6200976;22;20016;-67
2022/08/14 10:49:35;;;;;;;8.38;7.53;;;;;;;31.84;26.76;99909.03;6228449;22;20022;-68
2022/08/14 10:52:18;;;;;;;13.18;8.05;;;;;;;31.70;27.04;99910.38;6228268;22;20469;-67
2022/08/14 10:54:45;;;;;;;10.65;8.23;;;;;;;30.93;28.23;99901.22;6229360;22;20098;-67
2022/08/14 10:57:14;;;;;;;11.55;7.70;;;;;;;30.35;29.65;99907.34;6203540;22;20046;-69
2022/08/14 10:59:46;;;;;;;8.80;7.65;;;;;;;30.11;30.86;99902.78;6228966;22;20034;-66
2022/08/14 11:02:31;;;;;;;11.77;8.10;;;;;;;30.35;29.05;99895.50;6202173;22;20755;-66
2022/08/14 11:05:06;;;;;;;13.40;7.88;;;;;;;30.43;29.04;99907.03;6202962;22;20077;-70
2022/08/14 11:07:32;;;;;;;13.05;8.68;;;;;;;30.55;28.35;99899.69;6202951;22;20019;-70
2022/08/14 11:10:00;;;;;;;8.90;7.10;;;;;;;30.52;28.72;99902.03;6202792;22;20019;-71
2022/08/14 11:12:26;;;;;;;11.52;8.60;;;;;;;30.42;28.68;99899.00;6229610;22;20020;-70
2022/08/14 11:14:58;;;;;;;9.90;7.50;;;;;;;30.27;28.81;99908.50;6151777;22;20015;-67
2022/08/14 11:17:24;;;;;;;10.00;8.65;;;;;;;30.12;29.22;99904.47;6229258;22;20161;-67
2022/08/14 11:19:54;;;;;;;10.68;7.88;;;;;;;30.14;29.76;99903.16;6229111;22;20078;-67
2022/08/14 11:22:20;;;;;;;9.77;7.47;;;;;;;30.19;29.41;99900.56;6229557;22;20098;-66
2022/08/14 11:24:49;;;;;;;10.07;7.60;;;;;;;30.22;29.72;99902.03;6203032;22;20050;-68
2022/08/14 11:27:17;;;;;;;10.65;8.70;;;;;;;30.25;29.39;99899.63;6231155;22;20019;-67
2022/08/14 11:29:43;;;;;;;10.63;9.05;;;;;;;30.18;29.37;99904.38;6231225;22;20331;-68
2022/08/14 11:32:08;;;;;;;9.32;7.35;;;;;;;29.90;30.42;99904.91;6203937;22;20019;-66
2022/08/14 11:34:37;;;;;;;11.88;7.85;;;;;;;29.75;30.35;99898.94;6178979;22;20022;-67